Terminal Aerodrome Forecast
Issued by NWS Twin Cities, MN

Home | Current Version | Previous Version | Text Only | Print | Product List | Glossary On
Versions: 1 2 3 4 5 6 7 8 9 10 11 12 13 14 15 16 17 18 19
000
FTUS43 KMPX 271700
TAFEAU
TAF
KEAU 271727Z 2718/2818 32005KT P6SM SKC
     FM272200 VRB03KT P6SM SCT200
     FM280400 17003KT P6SM BKN120
     FM280800 14010KT 4SM -SN SCT015 OVC035
     FM281000 14008KT 2SM -SN BKN020 OVC040
     FM281500 14007KT 6SM -SN OVC015=

USA.gov is the U.S. government's official web portal to all federal, state and local government web resources and services.